Valle Azzurra — ICEG — position and weather

sailwx.info

Track history (hours):
 
Tides and Currents Weather Stations Pressure Air Temp Water Temp Dewpoint Dewpoint Depression Visibility Wind Speed Wind Dir Waves Ship Positions

Valle Azzurra

Last reported at 2016-Jul-14 03:30 UTC. Time now 2016-Jul-28 02:52 UTC.
Position N 29°14' W 093°39'.
Warning: this ship's position is 13 days out of date.

Length 183 m; draft 11 m.

Type: Tanker. MMSI: 247226600.

Date/timePositionNaut miles runAvg speedWind from/ knotsBaromVisibWave heightAir tempDewpointWater temp
2016-Jul-14 03:30N 29°14' W 093°39'10 8.4
2016-Jul-14 02:21N 29°23' W 093°41'7 8.8
2016-Jul-14 01:32N 29°30' W 093°41'1111.1
2016-Jul-14 00:33N 29°39' W 093°50'9 9.3
2016-Jul-13 23:32N 29°46' W 093°56'6 0.3
2016-Jul-13 06:33N 29°52' W 093°56'2 2.5
2016-Jul-13 05:33N 29°50' W 093°57'0 0.0
2016-Jul-12 01:30N 29°50' W 093°58'6 5.3
2016-Jul-12 00:25N 29°45' W 093°53'29 0.8
2016-Jul-10 14:24N 29°19' W 093°40'  
Track history (hours):
 
Tides and Currents Weather Stations Pressure Air Temp Water Temp Dewpoint Dewpoint Depression Visibility Wind Speed Wind Dir Waves Ship Positions

Valle Azzurra

Last reported at 2016-Jul-14 03:30 UTC. Time now 2016-Jul-28 02:52 UTC.
Position N 29°14' W 093°39'.
Warning: this ship's position is 13 days out of date.

Length 183 m; draft 11 m.

Type: Tanker. MMSI: 247226600.

Date/timePositionNaut miles runAvg speedWind from/ knotsBaromVisibWave heightAir tempDewpointWater temp
2016-Jul-14 03:30N 29°14' W 093°39'10 8.4
2016-Jul-14 02:21N 29°23' W 093°41'7 8.8
2016-Jul-14 01:32N 29°30' W 093°41'1111.1
2016-Jul-14 00:33N 29°39' W 093°50'9 9.3
2016-Jul-13 23:32N 29°46' W 093°56'6 0.3
2016-Jul-13 06:33N 29°52' W 093°56'2 2.5
2016-Jul-13 05:33N 29°50' W 093°57'0 0.0
2016-Jul-12 01:30N 29°50' W 093°58'6 5.3
2016-Jul-12 00:25N 29°45' W 093°53'29 0.8
2016-Jul-10 14:24N 29°19' W 093°40'  

Dump ship's entire track history